Time;durP1;ratioP1;P1;durP2;ratioP2;P2;SDS_P1;SDS_P2;PMS_P1;PMS_P2;Temp;Humidity;BMP_temperature;BMP_pressure;BME280_temperature;BME280_humidity;BME280_pressure;Samples;Min_cycle;Max_cycle;Signal;HPM_P1;HPM_P2
2024/01/23 00:00:14;;;;;;;12.77;2.87;;;;;;;;;;6099487;23;20012;-85
2024/01/23 00:02:40;;;;;;;13.82;2.95;;;;;;;;;;6119433;23;20076;-85
2024/01/23 00:05:06;;;;;;;13.25;2.40;;;;;;;;;;6098959;23;20024;-85
2024/01/23 00:07:33;;;;;;;7.63;2.13;;;;;;;;;;6091945;23;20445;-85
2024/01/23 00:10:01;;;;;;;16.42;2.22;;;;;;;;;;6114756;23;20021;-85
2024/01/23 00:12:27;;;;;;;;;;;;;;;;;;6116925;23;20017;-85
2024/01/23 00:14:54;;;;;;;11.70;2.75;;;;;;;;;;6115123;23;20022;-85
2024/01/23 00:17:20;;;;;;;14.32;2.53;;;;;;;;;;6141338;23;20075;-85
2024/01/23 00:19:46;;;;;;;14.05;2.20;;;;;;;;;;6114653;23;20117;-85
2024/01/23 00:22:12;;;;;;;14.18;2.80;;;;;;;;;;6117564;23;20020;-85
2024/01/23 00:24:39;;;;;;;16.42;2.65;;;;;;;;;;6139180;23;20096;-85
2024/01/23 00:27:05;;;;;;;16.17;3.20;;;;;;;;;;6117385;23;20025;-85
2024/01/23 00:29:33;;;;;;;9.15;2.40;;;;;;;;;;6116672;23;20024;-85
2024/01/23 00:31:59;;;;;;;12.02;2.42;;;;;;;;;;6113866;23;20020;-85
2024/01/23 00:34:25;;;;;;;13.27;3.40;;;;;;;;;;6117685;23;20033;-85
2024/01/23 00:36:51;;;;;;;8.40;2.42;;;;;;;;;;6140409;23;20022;-84
2024/01/23 00:39:17;;;;;;;16.05;3.25;;;;;;;;;;6117617;23;20588;-84
2024/01/23 00:41:43;;;;;;;13.75;2.85;;;;;;;;;;6112823;23;20036;-84
2024/01/23 00:44:09;;;;;;;13.38;3.25;;;;;;;;;;6115809;23;20434;-84
2024/01/23 00:46:35;;;;;;;9.63;2.20;;;;;;;;;;6114025;23;20017;-85
2024/01/23 00:49:01;;;;;;;13.95;2.70;;;;;;;;;;6116648;23;20163;-84
2024/01/23 00:51:28;;;;;;;12.50;2.53;;;;;;;;;;6117967;23;20045;-85
2024/01/23 00:53:54;;;;;;;14.23;2.42;;;;;;;;;;6115327;23;20389;-84
2024/01/23 00:56:20;;;;;;;13.90;2.20;;;;;;;;;;6141159;23;20118;-84
2024/01/23 00:58:46;;;;;;;10.18;2.58;;;;;;;;;;6115916;23;20379;-84
2024/01/23 01:01:12;;;;;;;9.55;2.10;;;;;;;;;;6118481;23;20017;-85
2024/01/23 01:03:38;;;;;;;11.80;2.33;;;;;;;;;;6140067;23;20028;-85
2024/01/23 01:06:04;;;;;;;13.52;3.60;;;;;;;;;;6118996;23;20025;-85
2024/01/23 01:08:30;;;;;;;15.40;2.33;;;;;;;;;;6117493;23;20458;-85
2024/01/23 01:10:57;;;;;;;8.90;2.33;;;;;;;;;;6140462;23;20386;-84
2024/01/23 01:13:23;;;;;;;15.68;2.58;;;;;;;;;;6119662;23;20029;-85
2024/01/23 01:15:49;;;;;;;11.13;2.20;;;;;;;;;;6115779;23;20205;-85
2024/01/23 01:18:15;;;;;;;17.55;2.42;;;;;;;;;;6118153;23;20476;-85
2024/01/23 01:20:43;;;;;;;14.02;2.33;;;;;;;;;;6140718;23;20108;-85
2024/01/23 01:23:09;;;;;;;11.55;1.98;;;;;;;;;;6118115;23;20111;-84
2024/01/23 01:25:35;;;;;;;11.38;2.10;;;;;;;;;;6117073;23;20509;-85
2024/01/23 01:28:01;;;;;;;10.80;2.05;;;;;;;;;;6118964;23;20459;-85
2024/01/23 01:30:29;;;;;;;12.18;2.45;;;;;;;;;;6118746;23;20026;-85
2024/01/23 01:32:55;;;;;;;14.73;2.15;;;;;;;;;;6116195;23;20360;-85
2024/01/23 01:35:21;;;;;;;13.23;2.72;;;;;;;;;;6118501;23;20022;-84
2024/01/23 01:37:47;;;;;;;8.77;1.98;;;;;;;;;;6115815;23;20092;-84
2024/01/23 01:40:13;;;;;;;9.13;2.00;;;;;;;;;;6119022;23;20025;-85
2024/01/23 01:42:43;;;;;;;13.13;2.83;;;;;;;;;;6115367;23;20017;-84
2024/01/23 01:45:12;;;;;;;9.73;1.90;;;;;;;;;;6145761;23;20022;-85
2024/01/23 01:47:41;;;;;;;8.88;1.83;;;;;;;;;;6139666;23;20021;-85
2024/01/23 01:50:07;;;;;;;5.43;2.05;;;;;;;;;;6119625;23;20129;-85
2024/01/23 01:52:36;;;;;;;10.98;2.45;;;;;;;;;;6116750;23;20045;-85
2024/01/23 01:55:02;;;;;;;7.65;2.15;;;;;;;;;;6116950;23;20025;-85
2024/01/23 01:57:30;;;;;;;11.63;2.67;;;;;;;;;;6141829;23;20018;-85
2024/01/23 01:59:56;;;;;;;13.68;2.55;;;;;;;;;;6115504;23;20017;-85
2024/01/23 02:02:22;;;;;;;16.33;2.58;;;;;;;;;;6118605;23;20040;-85
2024/01/23 02:04:48;;;;;;;13.52;1.88;;;;;;;;;;6118311;23;20059;-85
2024/01/23 02:07:14;;;;;;;14.85;2.55;;;;;;;;;;6118664;23;20063;-85
2024/01/23 02:09:40;;;;;;;8.75;2.28;;;;;;;;;;6139086;23;20033;-85
2024/01/23 02:12:07;;;;;;;11.00;1.88;;;;;;;;;;6118309;23;20013;-85
2024/01/23 02:14:33;;;;;;;16.77;2.70;;;;;;;;;;6118788;23;20077;-85
2024/01/23 02:16:59;;;;;;;13.18;2.60;;;;;;;;;;6118323;23;20129;-85
2024/01/23 02:19:28;;;;;;;11.25;2.58;;;;;;;;;;6117726;23;20449;-85
2024/01/23 02:21:54;;;;;;;13.60;1.95;;;;;;;;;;6116615;23;20374;-85
2024/01/23 02:24:20;;;;;;;8.85;1.77;;;;;;;;;;6118511;23;20025;-85
2024/01/23 02:26:46;;;;;;;18.05;2.63;;;;;;;;;;6116558;23;20156;-85
2024/01/23 02:29:12;;;;;;;10.32;2.47;;;;;;;;;;6117608;23;20014;-85
2024/01/23 02:31:38;;;;;;;9.10;1.75;;;;;;;;;;6115561;23;20013;-85
2024/01/23 02:34:04;;;;;;;12.20;1.90;;;;;;;;;;6116957;23;20442;-85
2024/01/23 02:36:34;;;;;;;16.38;2.35;;;;;;;;;;6141893;23;20044;-85
2024/01/23 02:39:02;;;;;;;11.48;1.95;;;;;;;;;;6141305;23;20025;-85
2024/01/23 02:41:28;;;;;;;14.10;2.63;;;;;;;;;;6119083;23;20053;-85
2024/01/23 02:43:54;;;;;;;13.00;2.90;;;;;;;;;;6113403;23;21014;-85
2024/01/23 02:46:20;;;;;;;15.07;2.28;;;;;;;;;;6118175;23;20100;-85
2024/01/23 02:48:46;;;;;;;12.13;2.33;;;;;;;;;;6114216;23;20023;-85
2024/01/23 02:51:19;;;;;;;19.05;3.00;;;;;;;;;;6117145;23;20014;-85
2024/01/23 02:53:45;;;;;;;5.93;1.92;;;;;;;;;;6113979;23;20017;-85
2024/01/23 02:56:11;;;;;;;12.48;2.60;;;;;;;;;;6118115;23;20028;-85
2024/01/23 02:58:39;;;;;;;8.48;2.67;;;;;;;;;;6113633;23;20044;-85
2024/01/23 03:01:05;;;;;;;14.63;2.28;;;;;;;;;;6117228;23;20072;-84
2024/01/23 03:03:31;;;;;;;10.68;1.88;;;;;;;;;;6116989;23;20481;-85
2024/01/23 03:05:57;;;;;;;9.23;2.85;;;;;;;;;;6115312;23;20021;-84
2024/01/23 03:08:23;;;;;;;18.80;3.25;;;;;;;;;;6141815;23;20075;-85
2024/01/23 03:10:50;;;;;;;14.90;2.67;;;;;;;;;;6114082;23;20044;-85
2024/01/23 03:13:16;;;;;;;9.95;2.40;;;;;;;;;;6141411;23;20335;-85
2024/01/23 03:15:42;;;;;;;16.98;2.10;;;;;;;;;;6114483;23;20024;-84
2024/01/23 03:18:08;;;;;;;15.77;2.03;;;;;;;;;;6117935;23;20446;-85
2024/01/23 03:20:34;;;;;;;11.73;2.17;;;;;;;;;;6118456;23;20341;-84
2024/01/23 03:23:00;;;;;;;18.58;2.78;;;;;;;;;;6116196;23;20053;-84
2024/01/23 03:25:27;;;;;;;14.15;2.67;;;;;;;;;;6116843;23;20018;-85
2024/01/23 03:27:53;;;;;;;10.05;2.30;;;;;;;;;;6115370;23;20063;-85
2024/01/23 03:30:27;;;;;;;17.10;2.38;;;;;;;;;;6117027;23;20033;-85
2024/01/23 03:32:53;;;;;;;18.02;3.03;;;;;;;;;;6114982;23;20017;-85
2024/01/23 03:35:19;;;;;;;16.55;2.60;;;;;;;;;;6118430;23;20346;-85
2024/01/23 03:37:45;;;;;;;13.15;2.60;;;;;;;;;;6115722;23;20024;-85
2024/01/23 03:40:11;;;;;;;11.27;3.03;;;;;;;;;;6141961;23;20018;-85
2024/01/23 03:42:37;;;;;;;10.95;2.08;;;;;;;;;;6114380;23;20021;-84
2024/01/23 03:45:04;;;;;;;12.43;2.35;;;;;;;;;;6117128;23;20025;-85
2024/01/23 03:47:30;;;;;;;11.10;1.92;;;;;;;;;;6116240;23;20021;-85
2024/01/23 03:49:56;;;;;;;10.57;2.53;;;;;;;;;;6139662;23;20021;-84
2024/01/23 03:52:22;;;;;;;13.63;2.63;;;;;;;;;;6140722;23;20076;-84
2024/01/23 03:54:48;;;;;;;12.15;2.85;;;;;;;;;;6113800;23;20029;-85
2024/01/23 03:57:15;;;;;;;10.57;2.22;;;;;;;;;;6116020;23;20539;-84
2024/01/23 03:59:44;;;;;;;14.07;3.00;;;;;;;;;;6115348;23;20024;-85
2024/01/23 04:02:10;;;;;;;12.05;2.85;;;;;;;;;;6116356;23;20338;-85
2024/01/23 04:04:38;;;;;;;13.90;3.28;;;;;;;;;;6114366;23;20078;-85
2024/01/23 04:07:04;;;;;;;;;;;;;;;;;;6116539;23;20021;-85
2024/01/23 04:09:30;;;;;;;13.25;3.45;;;;;;;;;;6115493;23;19927;-85
2024/01/23 04:11:56;;;;;;;20.75;3.83;;;;;;;;;;6114877;23;20017;-85
2024/01/23 04:14:22;;;;;;;16.48;3.13;;;;;;;;;;6116042;23;20021;-85
2024/01/23 04:16:48;;;;;;;15.50;3.30;;;;;;;;;;6114081;23;20025;-85
2024/01/23 04:19:14;;;;;;;11.98;3.15;;;;;;;;;;6117598;23;20036;-85
2024/01/23 04:21:40;;;;;;;20.25;3.65;;;;;;;;;;6140366;23;20572;-85
2024/01/23 04:24:07;;;;;;;15.05;3.03;;;;;;;;;;6117796;23;20410;-85
2024/01/23 04:26:33;;;;;;;21.65;3.53;;;;;;;;;;6116510;23;20021;-85
2024/01/23 04:28:59;;;;;;;15.75;3.88;;;;;;;;;;6139066;23;20018;-84
2024/01/23 04:31:25;;;;;;;14.18;3.38;;;;;;;;;;6117512;23;20068;-85
2024/01/23 04:33:52;;;;;;;13.60;3.13;;;;;;;;;;6117656;23;20458;-85
2024/01/23 04:36:18;;;;;;;13.80;3.38;;;;;;;;;;6145375;23;20014;-85
2024/01/23 04:38:44;;;;;;;17.17;3.15;;;;;;;;;;6118943;23;20342;-85
2024/01/23 04:41:14;;;;;;;19.67;3.47;;;;;;;;;;6143833;23;20021;-85
2024/01/23 04:43:40;;;;;;;14.73;3.13;;;;;;;;;;6116139;23;20037;-85
2024/01/23 04:46:06;;;;;;;14.20;4.00;;;;;;;;;;6118482;23;20017;-85
2024/01/23 04:48:32;;;;;;;19.55;3.08;;;;;;;;;;6118444;23;20084;-85
2024/01/23 04:50:58;;;;;;;21.00;3.20;;;;;;;;;;6139371;23;20014;-85
2024/01/23 04:53:29;;;;;;;22.85;4.50;;;;;;;;;;6117952;23;20009;-85
2024/01/23 04:55:55;;;;;;;14.13;3.30;;;;;;;;;;6117187;23;20021;-85
2024/01/23 04:58:21;;;;;;;15.93;3.13;;;;;;;;;;6118039;23;20018;-85
2024/01/23 05:00:47;;;;;;;16.13;3.35;;;;;;;;;;6115962;23;20100;-85
2024/01/23 05:03:13;;;;;;;18.33;3.42;;;;;;;;;;6117464;23;20092;-85
2024/01/23 05:05:39;;;;;;;17.35;3.20;;;;;;;;;;6140956;23;20031;-84
2024/01/23 05:08:05;;;;;;;15.73;3.72;;;;;;;;;;6118376;23;20017;-85
2024/01/23 05:10:32;;;;;;;15.85;3.30;;;;;;;;;;6143600;23;20037;-85
2024/01/23 05:12:58;;;;;;;17.70;4.15;;;;;;;;;;6116715;23;20096;-85
2024/01/23 05:15:24;;;;;;;16.45;3.80;;;;;;;;;;6117978;23;20022;-85
2024/01/23 05:17:50;;;;;;;17.63;3.50;;;;;;;;;;6114501;23;20056;-85
2024/01/23 05:20:16;;;;;;;19.98;3.50;;;;;;;;;;6118750;23;20017;-85
2024/01/23 05:22:42;;;;;;;13.75;3.35;;;;;;;;;;6115885;23;20345;-85
2024/01/23 05:25:08;;;;;;;19.77;3.95;;;;;;;;;;6121000;23;20096;-85
2024/01/23 05:27:34;;;;;;;19.90;4.25;;;;;;;;;;6116758;23;20014;-85
2024/01/23 05:30:04;;;;;;;16.77;4.13;;;;;;;;;;6118392;23;20060;-85
2024/01/23 05:32:30;;;;;;;17.02;3.60;;;;;;;;;;6143970;23;20353;-85
2024/01/23 05:34:56;;;;;;;18.27;3.53;;;;;;;;;;6118357;23;20382;-85
2024/01/23 05:37:24;;;;;;;16.67;2.78;;;;;;;;;;6143576;23;20080;-85
2024/01/23 05:39:50;;;;;;;13.00;2.80;;;;;;;;;;6142427;23;20033;-85
2024/01/23 05:42:15;;;;;;;23.05;3.65;;;;;;;;;;6116919;23;20092;-85
2024/01/23 05:44:41;;;;;;;22.50;3.63;;;;;;;;;;6117491;23;20021;-85
2024/01/23 05:47:07;;;;;;;14.85;2.55;;;;;;;;;;6143127;23;20021;-85
2024/01/23 05:49:34;;;;;;;19.05;3.85;;;;;;;;;;6145172;23;20021;-84
2024/01/23 05:52:00;;;;;;;14.10;2.72;;;;;;;;;;6117571;23;20076;-84
2024/01/23 05:54:25;;;;;;;19.45;3.47;;;;;;;;;;6119699;23;20101;-85
2024/01/23 05:56:51;;;;;;;20.95;3.72;;;;;;;;;;6114343;23;20108;-86
2024/01/23 05:59:18;;;;;;;14.75;3.00;;;;;;;;;;6119370;23;20013;-86
2024/01/23 06:01:44;;;;;;;19.40;2.65;;;;;;;;;;6118403;23;20052;-86
2024/01/23 06:04:10;;;;;;;19.73;3.42;;;;;;;;;;6120625;23;20017;-85
2024/01/23 06:06:40;;;;;;;23.00;2.90;;;;;;;;;;6121329;23;20521;-86
2024/01/23 06:09:07;;;;;;;23.23;3.80;;;;;;;;;;6124973;23;20032;-85
2024/01/23 06:11:33;;;;;;;16.52;3.22;;;;;;;;;;6102324;23;20110;-85
2024/01/23 06:13:59;;;;;;;18.08;3.08;;;;;;;;;;6098994;23;20021;-85
2024/01/23 06:16:25;;;;;;;17.38;3.50;;;;;;;;;;6125130;23;20024;-86
2024/01/23 06:18:51;;;;;;;18.98;3.95;;;;;;;;;;6122558;23;20505;-85
2024/01/23 06:21:17;;;;;;;16.80;3.55;;;;;;;;;;6101086;23;20009;-85
2024/01/23 06:23:43;;;;;;;20.00;3.95;;;;;;;;;;6122947;23;20020;-85
2024/01/23 06:26:09;;;;;;;19.92;3.20;;;;;;;;;;6100678;23;20527;-85
2024/01/23 06:28:35;;;;;;;13.80;2.70;;;;;;;;;;6122948;23;20013;-85
2024/01/23 06:31:01;;;;;;;16.30;4.05;;;;;;;;;;6100823;23;20064;-86
2024/01/23 06:33:27;;;;;;;14.63;3.80;;;;;;;;;;6150128;23;20075;-86
2024/01/23 06:35:53;;;;;;;15.98;3.58;;;;;;;;;;6098712;23;20021;-85
2024/01/23 06:38:19;;;;;;;19.70;3.97;;;;;;;;;;6124802;23;20013;-86
2024/01/23 06:40:45;;;;;;;17.98;3.53;;;;;;;;;;6097358;23;20096;-85
2024/01/23 06:43:11;;;;;;;18.13;4.18;;;;;;;;;;6098489;23;20048;-85
2024/01/23 06:45:37;;;;;;;20.33;3.60;;;;;;;;;;6122161;23;20013;-86
2024/01/23 06:48:37;;;;;;;;;;;;;;;;;;;;;
2024/01/23 06:55:49;;;;;;;13.23;3.85;;;;;;;;;;5931318;24;20055;-85
2024/01/23 06:59:09;;;;;;;;;;;;;;;;;;;;;
2024/01/23 07:02:12;;;;;;;22.90;4.57;;;;;;;;;;5995647;23;20015;-86
2024/01/23 07:04:40;;;;;;;19.10;4.43;;;;;;;;;;6029872;23;20147;-85
2024/01/23 07:07:06;;;;;;;19.70;3.85;;;;;;;;;;6148676;23;20056;-85
2024/01/23 07:09:33;;;;;;;22.17;4.32;;;;;;;;;;6099961;23;20032;-84
2024/01/23 07:11:59;;;;;;;19.90;5.22;;;;;;;;;;6099697;23;20100;-84
2024/01/23 07:14:25;;;;;;;22.90;4.00;;;;;;;;;;6100571;23;20027;-84
2024/01/23 07:16:51;;;;;;;19.10;4.32;;;;;;;;;;6099830;23;20510;-84
2024/01/23 07:19:17;;;;;;;22.55;5.18;;;;;;;;;;6124982;23;20388;-84
2024/01/23 07:21:43;;;;;;;24.42;4.25;;;;;;;;;;6147478;23;20436;-84
2024/01/23 07:24:10;;;;;;;16.80;4.43;;;;;;;;;;6124668;23;20346;-84
2024/01/23 07:26:36;;;;;;;28.02;4.70;;;;;;;;;;6122167;23;20515;-84
2024/01/23 07:29:05;;;;;;;30.42;4.63;;;;;;;;;;6101120;23;20013;-84
2024/01/23 07:31:31;;;;;;;21.50;4.78;;;;;;;;;;6150911;23;20013;-84
2024/01/23 07:33:57;;;;;;;24.80;4.63;;;;;;;;;;6121379;23;20147;-85
2024/01/23 07:36:23;;;;;;;21.15;4.32;;;;;;;;;;6125439;23;20453;-84
2024/01/23 07:38:49;;;;;;;27.55;4.47;;;;;;;;;;6123197;23;20378;-85
2024/01/23 07:41:16;;;;;;;20.77;4.40;;;;;;;;;;6124370;23;20028;-84
2024/01/23 07:43:42;;;;;;;26.25;4.95;;;;;;;;;;6121452;23;20087;-84
2024/01/23 07:46:08;;;;;;;27.58;4.65;;;;;;;;;;6101141;23;20384;-84
2024/01/23 07:48:34;;;;;;;24.77;5.43;;;;;;;;;;6100120;23;20017;-85
2024/01/23 07:51:01;;;;;;;32.17;5.60;;;;;;;;;;6100169;23;20031;-84
2024/01/23 07:53:29;;;;;;;29.73;4.90;;;;;;;;;;6099823;23;20013;-84
2024/01/23 07:55:55;;;;;;;25.55;5.00;;;;;;;;;;6123835;23;20048;-84
2024/01/23 07:58:21;;;;;;;27.30;4.57;;;;;;;;;;6148552;23;20028;-84
2024/01/23 08:00:47;;;;;;;19.90;4.63;;;;;;;;;;6098347;23;20048;-85
2024/01/23 08:03:13;;;;;;;24.05;4.80;;;;;;;;;;6100105;23;20017;-84
2024/01/23 08:05:40;;;;;;;25.52;4.88;;;;;;;;;;6146594;23;20024;-84
2024/01/23 08:08:06;;;;;;;32.00;5.38;;;;;;;;;;6121293;23;20445;-85
2024/01/23 08:10:34;;;;;;;18.15;4.47;;;;;;;;;;6098554;23;20025;-84
2024/01/23 08:13:00;;;;;;;26.73;5.68;;;;;;;;;;6123728;23;20017;-84
2024/01/23 08:15:26;;;;;;;18.20;4.60;;;;;;;;;;6124049;23;20504;-84
2024/01/23 08:17:52;;;;;;;25.90;4.57;;;;;;;;;;6121542;23;20052;-84
2024/01/23 08:20:18;;;;;;;24.42;3.67;;;;;;;;;;6098684;23;20017;-84
2024/01/23 08:22:44;;;;;;;20.27;3.85;;;;;;;;;;6121716;23;20056;-84
2024/01/23 08:25:10;;;;;;;20.88;4.15;;;;;;;;;;6147369;23;20051;-84
2024/01/23 08:27:36;;;;;;;23.60;4.05;;;;;;;;;;6144643;23;20014;-84
2024/01/23 08:30:02;;;;;;;21.40;4.35;;;;;;;;;;6123124;23;20311;-84
2024/01/23 08:32:28;;;;;;;27.05;6.28;;;;;;;;;;6122264;23;20013;-84
2024/01/23 08:34:54;;;;;;;23.88;3.95;;;;;;;;;;6121555;23;20021;-84
2024/01/23 08:37:20;;;;;;;18.15;2.95;;;;;;;;;;6099368;23;20110;-83
2024/01/23 08:39:46;;;;;;;12.93;2.85;;;;;;;;;;6121599;23;20017;-84
2024/01/23 08:42:12;;;;;;;18.63;3.20;;;;;;;;;;6149164;23;20067;-83
2024/01/23 08:44:40;;;;;;;18.77;3.80;;;;;;;;;;6099001;23;20013;-84
2024/01/23 08:47:06;;;;;;;20.48;3.15;;;;;;;;;;6100121;23;20029;-84
2024/01/23 08:49:32;;;;;;;15.95;3.33;;;;;;;;;;6124761;23;20717;-84
2024/01/23 08:51:58;;;;;;;15.38;2.72;;;;;;;;;;6146776;23;20028;-83
2024/01/23 08:54:24;;;;;;;16.45;3.85;;;;;;;;;;6124976;23;20025;-87
2024/01/23 08:56:50;;;;;;;24.83;3.83;;;;;;;;;;6097824;23;20078;-84
2024/01/23 08:59:16;;;;;;;19.92;3.15;;;;;;;;;;6124480;23;20028;-85
2024/01/23 09:01:42;;;;;;;18.73;3.45;;;;;;;;;;6097152;23;20013;-85
2024/01/23 09:04:08;;;;;;;15.68;4.13;;;;;;;;;;6101800;23;20065;-85
2024/01/23 09:06:34;;;;;;;17.77;3.92;;;;;;;;;;6098059;23;20021;-85
2024/01/23 09:09:00;;;;;;;14.15;3.78;;;;;;;;;;6098548;23;20057;-85
2024/01/23 09:11:26;;;;;;;24.38;3.53;;;;;;;;;;6101908;23;20082;-85
2024/01/23 09:13:52;;;;;;;20.38;3.05;;;;;;;;;;6123388;23;20013;-85
2024/01/23 09:16:18;;;;;;;23.45;4.13;;;;;;;;;;6100761;23;20044;-85
2024/01/23 09:18:48;;;;;;;21.20;3.58;;;;;;;;;;6099402;23;20016;-84
2024/01/23 09:21:15;;;;;;;22.80;3.47;;;;;;;;;;6103499;23;20017;-84
2024/01/23 09:23:41;;;;;;;20.98;3.67;;;;;;;;;;6100805;23;20021;-85
2024/01/23 09:26:07;;;;;;;19.48;3.63;;;;;;;;;;6103380;23;20099;-84
2024/01/23 09:28:33;;;;;;;12.27;3.28;;;;;;;;;;6103743;23;20514;-87
2024/01/23 09:30:58;;;;;;;25.02;3.60;;;;;;;;;;6099951;23;20013;-87
2024/01/23 09:41:12;;;;;;;;;;;;;;;;;;;;;
2024/01/23 09:56:02;;;;;;;;;;;;;;;;;;;;;
2024/01/23 18:44:59;;;;;;;9.05;3.53;;;;;;;;;;6088294;23;20029;-88
2024/01/23 18:55:51;;;;;;;;;;;;;;;;;;;;;
2024/01/23 19:25:25;;;;;;;6.82;3.20;;;;;;;;;;6142669;23;20131;-89
2024/01/23 19:28:23;;;;;;;5.90;3.40;;;;;;;;;;6145444;23;20017;-89
2024/01/23 19:31:17;;;;;;;6.60;3.65;;;;;;;;;;6146573;23;20021;-89
2024/01/23 19:34:17;;;;;;;4.43;3.15;;;;;;;;;;6119533;23;20028;-89
2024/01/23 19:37:04;;;;;;;;;;;;;;;;;;;;;
2024/01/23 19:39:59;;;;;;;5.90;3.37;;;;;;;;;;6164723;23;20317;-89
2024/01/23 19:46:43;;;;;;;;;;;;;;;;;;;;;
2024/01/23 19:52:47;;;;;;;6.15;3.63;;;;;;;;;;6024558;23;20035;-90
2024/01/23 19:55:48;;;;;;;6.47;4.40;;;;;;;;;;6003391;23;20023;-90
2024/01/23 19:58:26;;;;;;;5.85;3.92;;;;;;;;;;6079750;23;20025;-89
2024/01/23 20:04:40;;;;;;;;;;;;;;;;;;6107937;23;20435;-90
2024/01/23 20:07:25;;;;;;;7.95;3.95;;;;;;;;;;6057455;23;19991;-89
2024/01/23 20:09:57;;;;;;;6.10;3.85;;;;;;;;;;6058852;23;20026;-89
2024/01/23 20:12:34;;;;;;;6.55;4.57;;;;;;;;;;6059197;23;20059;-89
2024/01/23 20:15:23;;;;;;;7.05;4.63;;;;;;;;;;6059770;23;20018;-89
2024/01/23 20:18:13;;;;;;;8.30;5.38;;;;;;;;;;6080992;23;20017;-89
2024/01/23 20:21:20;;;;;;;7.25;4.97;;;;;;;;;;6080288;23;20061;-90
2024/01/23 20:24:26;;;;;;;6.72;4.47;;;;;;;;;;6066066;23;20617;-89
2024/01/23 22:28:05;;;;;;;;;;;;;;;;;;;;;
2024/01/23 22:30:37;;;;;;;;;;;;;;;;;;;;;
2024/01/23 22:33:48;;;;;;;;;;;;;;;;;;;;;
2024/01/23 22:36:53;;;;;;;;;;;;;;;;;;;;;
2024/01/23 22:50:19;;;;;;;11.25;7.55;;;;;;;;;;6007990;23;20557;-89
2024/01/23 23:03:07;;;;;;;;;;;;;;;;;;;;;
2024/01/23 23:06:13;;;;;;;11.98;7.97;;;;;;;;;;6092070;23;20020;-89
2024/01/23 23:12:24;;;;;;;;;;;;;;;;;;;;;
2024/01/23 23:34:56;;;;;;;7.25;4.88;;;;;;;;;;6070055;23;20469;-89
2024/01/23 23:44:31;;;;;;;6.82;4.30;;;;;;;;;;6110331;23;20024;-90
2024/01/23 23:48:56;;;;;;;;;;;;;;;;;;;;;
2024/01/23 23:52:09;;;;;;;;;;;;;;;;;;;;;
2024/01/23 23:54:36;;;;;;;;;;;;;;;;;;;;;
2024/01/23 23:57:42;;;;;;;5.05;3.20;;;;;;;;;;6161362;23;20082;-89
